sensor_id;sensor_type;location;lat;lon;timestamp;pressure;altitude;pressure_sealevel;temperature;humidity
30730;BME280;17476;48.458;7.928;2023-05-12T00:00:15;99683.94;;;14.38;89.10
30730;BME280;17476;48.458;7.928;2023-05-12T00:02:41;99676.81;;;14.32;88.78
30730;BME280;17476;48.458;7.928;2023-05-12T00:05:08;99676.78;;;14.25;88.92
30730;BME280;17476;48.458;7.928;2023-05-12T00:07:33;99671.47;;;14.18;89.67
30730;BME280;17476;48.458;7.928;2023-05-12T00:09:59;99669.66;;;14.19;89.34
30730;BME280;17476;48.458;7.928;2023-05-12T00:12:25;99671.72;;;14.24;89.53
30730;BME280;17476;48.458;7.928;2023-05-12T00:14:51;99670.50;;;14.26;89.40
30730;BME280;17476;48.458;7.928;2023-05-12T00:17:17;99666.50;;;14.30;88.64
30730;BME280;17476;48.458;7.928;2023-05-12T00:19:43;99664.69;;;14.31;89.41
30730;BME280;17476;48.458;7.928;2023-05-12T00:22:09;99666.88;;;14.27;89.12
30730;BME280;17476;48.458;7.928;2023-05-12T00:24:36;99668.69;;;14.27;89.43
30730;BME280;17476;48.458;7.928;2023-05-12T00:27:02;99672.53;;;14.24;89.16
30730;BME280;17476;48.458;7.928;2023-05-12T00:29:28;99663.81;;;14.24;89.81
30730;BME280;17476;48.458;7.928;2023-05-12T00:31:57;99664.44;;;14.26;89.58
30730;BME280;17476;48.458;7.928;2023-05-12T00:34:22;99666.06;;;14.27;89.13
30730;BME280;17476;48.458;7.928;2023-05-12T00:36:48;99661.00;;;14.25;89.24
30730;BME280;17476;48.458;7.928;2023-05-12T00:39:14;99665.00;;;14.21;88.90
30730;BME280;17476;48.458;7.928;2023-05-12T00:41:40;99662.34;;;14.14;89.25
30730;BME280;17476;48.458;7.928;2023-05-12T00:44:06;99667.00;;;14.12;89.72
30730;BME280;17476;48.458;7.928;2023-05-12T00:46:32;99663.75;;;14.10;89.36
30730;BME280;17476;48.458;7.928;2023-05-12T00:48:58;99655.47;;;14.13;89.42
30730;BME280;17476;48.458;7.928;2023-05-12T00:51:24;99651.22;;;14.12;90.13
30730;BME280;17476;48.458;7.928;2023-05-12T00:53:51;99659.72;;;14.14;89.67
30730;BME280;17476;48.458;7.928;2023-05-12T00:56:18;99660.34;;;14.16;89.78
30730;BME280;17476;48.458;7.928;2023-05-12T00:58:45;99656.91;;;14.16;90.38
30730;BME280;17476;48.458;7.928;2023-05-12T01:01:11;99652.25;;;14.18;90.18
30730;BME280;17476;48.458;7.928;2023-05-12T01:03:37;99648.81;;;14.17;89.42
30730;BME280;17476;48.458;7.928;2023-05-12T01:06:19;99648.63;;;14.19;89.91
30730;BME280;17476;48.458;7.928;2023-05-12T01:08:47;99649.22;;;14.21;89.63
30730;BME280;17476;48.458;7.928;2023-05-12T01:11:12;99653.69;;;14.20;89.15
30730;BME280;17476;48.458;7.928;2023-05-12T01:13:38;99647.19;;;14.16;89.64
30730;BME280;17476;48.458;7.928;2023-05-12T01:16:08;99650.41;;;14.12;90.70
30730;BME280;17476;48.458;7.928;2023-05-12T01:18:38;99647.56;;;14.13;89.65
30730;BME280;17476;48.458;7.928;2023-05-12T01:21:05;99644.09;;;14.06;90.87
30730;BME280;17476;48.458;7.928;2023-05-12T01:23:41;99644.69;;;14.08;90.93
30730;BME280;17476;48.458;7.928;2023-05-12T01:26:09;99643.31;;;14.12;90.76
30730;BME280;17476;48.458;7.928;2023-05-12T01:28:36;99647.97;;;14.10;90.66
30730;BME280;17476;48.458;7.928;2023-05-12T01:31:03;99646.97;;;14.11;90.70
30730;BME280;17476;48.458;7.928;2023-05-12T01:33:32;99647.97;;;14.10;90.83
30730;BME280;17476;48.458;7.928;2023-05-12T01:35:58;99649.19;;;14.14;90.15
30730;BME280;17476;48.458;7.928;2023-05-12T01:38:25;99652.41;;;14.10;89.73
30730;BME280;17476;48.458;7.928;2023-05-12T01:40:51;99657.69;;;14.10;89.65
30730;BME280;17476;48.458;7.928;2023-05-12T01:43:17;99660.47;;;14.08;89.77
30730;BME280;17476;48.458;7.928;2023-05-12T01:45:42;99653.59;;;14.07;89.54
30730;BME280;17476;48.458;7.928;2023-05-12T01:48:08;99655.41;;;14.07;90.21
30730;BME280;17476;48.458;7.928;2023-05-12T01:50:34;99656.22;;;14.07;90.00
30730;BME280;17476;48.458;7.928;2023-05-12T01:53:00;99655.00;;;14.03;90.19
30730;BME280;17476;48.458;7.928;2023-05-12T01:55:26;99652.66;;;13.87;90.75
30730;BME280;17476;48.458;7.928;2023-05-12T01:57:52;99650.03;;;13.87;91.50
30730;BME280;17476;48.458;7.928;2023-05-12T02:00:17;99649.66;;;13.90;91.57
30730;BME280;17476;48.458;7.928;2023-05-12T02:02:43;99653.50;;;13.94;91.77
30730;BME280;17476;48.458;7.928;2023-05-12T02:05:09;99647.69;;;13.99;91.82
30730;BME280;17476;48.458;7.928;2023-05-12T02:07:35;99639.22;;;14.03;91.30
30730;BME280;17476;48.458;7.928;2023-05-12T02:10:01;99646.91;;;14.05;91.39
30730;BME280;17476;48.458;7.928;2023-05-12T02:12:26;99643.09;;;14.07;91.63
30730;BME280;17476;48.458;7.928;2023-05-12T02:14:52;99647.97;;;14.10;91.22
30730;BME280;17476;48.458;7.928;2023-05-12T02:17:18;99647.97;;;14.10;91.47
30730;BME280;17476;48.458;7.928;2023-05-12T02:19:44;99643.31;;;14.12;91.67
30730;BME280;17476;48.458;7.928;2023-05-12T02:22:10;99637.84;;;14.14;91.78
30730;BME280;17476;48.458;7.928;2023-05-12T02:24:35;99644.34;;;14.11;91.34
30730;BME280;17476;48.458;7.928;2023-05-12T02:27:01;99648.00;;;14.17;90.92
30730;BME280;17476;48.458;7.928;2023-05-12T02:29:27;99645.38;;;14.17;91.69
30730;BME280;17476;48.458;7.928;2023-05-12T02:31:53;99644.56;;;14.16;91.40
30730;BME280;17476;48.458;7.928;2023-05-12T02:34:18;99644.56;;;14.16;91.64
30730;BME280;17476;48.458;7.928;2023-05-12T02:36:44;99649.63;;;14.18;91.64
30730;BME280;17476;48.458;7.928;2023-05-12T02:39:10;99647.19;;;14.16;91.81
30730;BME280;17476;48.458;7.928;2023-05-12T02:41:36;99646.19;;;14.17;91.97
30730;BME280;17476;48.458;7.928;2023-05-12T02:44:02;99644.56;;;14.16;91.99
30730;BME280;17476;48.458;7.928;2023-05-12T02:46:28;99646.38;;;14.16;92.46
30730;BME280;17476;48.458;7.928;2023-05-12T02:48:53;99641.31;;;14.14;92.20
30730;BME280;17476;48.458;7.928;2023-05-12T02:51:19;99638.66;;;14.14;92.67
30730;BME280;17476;48.458;7.928;2023-05-12T02:53:45;99636.84;;;14.15;92.24
30730;BME280;17476;48.458;7.928;2023-05-12T02:56:11;99643.94;;;14.14;92.75
30730;BME280;17476;48.458;7.928;2023-05-12T02:58:37;99642.31;;;14.13;92.48
30730;BME280;17476;48.458;7.928;2023-05-12T03:01:03;99641.50;;;14.13;92.67
30730;BME280;17476;48.458;7.928;2023-05-12T03:03:28;99637.25;;;14.12;93.82
30730;BME280;17476;48.458;7.928;2023-05-12T03:05:54;99639.69;;;14.13;93.23
30730;BME280;17476;48.458;7.928;2023-05-12T03:08:20;99638.06;;;14.12;93.46
30730;BME280;17476;48.458;7.928;2023-05-12T03:10:46;99640.25;;;14.09;94.08
30730;BME280;17476;48.458;7.928;2023-05-12T03:13:12;99637.44;;;14.10;93.45
30730;BME280;17476;48.458;7.928;2023-05-12T03:15:37;99632.00;;;14.12;93.58
30730;BME280;17476;48.458;7.928;2023-05-12T03:18:03;99638.88;;;14.13;93.06
30730;BME280;17476;48.458;7.928;2023-05-12T03:20:29;99636.84;;;14.15;92.56
30730;BME280;17476;48.458;7.928;2023-05-12T03:22:55;99643.34;;;14.19;92.62
30730;BME280;17476;48.458;7.928;2023-05-12T03:25:21;99634.84;;;14.17;93.02
30730;BME280;17476;48.458;7.928;2023-05-12T03:27:47;99640.28;;;14.15;93.43
30730;BME280;17476;48.458;7.928;2023-05-12T03:30:13;99635.03;;;14.15;93.08
30730;BME280;17476;48.458;7.928;2023-05-12T03:32:39;99637.50;;;14.17;92.61
30730;BME280;17476;48.458;7.928;2023-05-12T03:35:05;99636.69;;;14.16;92.72
30730;BME280;17476;48.458;7.928;2023-05-12T03:37:32;99636.84;;;14.15;92.90
30730;BME280;17476;48.458;7.928;2023-05-12T03:39:58;99637.84;;;14.14;93.27
30730;BME280;17476;48.458;7.928;2023-05-12T03:42:23;99638.88;;;14.13;93.55
30730;BME280;17476;48.458;7.928;2023-05-12T03:44:52;99639.69;;;14.13;93.16
30730;BME280;17476;48.458;7.928;2023-05-12T03:47:18;99638.88;;;14.13;93.16
30730;BME280;17476;48.458;7.928;2023-05-12T03:49:44;99638.88;;;14.13;93.29
30730;BME280;17476;48.458;7.928;2023-05-12T03:52:09;99634.84;;;14.17;92.85
30730;BME280;17476;48.458;7.928;2023-05-12T03:54:35;99635.66;;;14.17;92.02
30730;BME280;17476;48.458;7.928;2023-05-12T03:57:01;99634.66;;;14.18;92.98
30730;BME280;17476;48.458;7.928;2023-05-12T03:59:30;99634.66;;;14.18;92.50
30730;BME280;17476;48.458;7.928;2023-05-12T04:01:57;99631.41;;;14.16;92.65
30730;BME280;17476;48.458;7.928;2023-05-12T04:04:23;99634.41;;;14.13;91.82
30730;BME280;17476;48.458;7.928;2023-05-12T04:06:49;99632.59;;;14.14;92.25
30730;BME280;17476;48.458;7.928;2023-05-12T04:09:14;99632.81;;;14.12;92.07
30730;BME280;17476;48.458;7.928;2023-05-12T04:11:42;99618.22;;;14.10;92.39
30730;BME280;17476;48.458;7.928;2023-05-12T04:14:08;99630.56;;;14.09;93.02
30730;BME280;17476;48.458;7.928;2023-05-12T04:16:34;99625.13;;;14.11;93.29
30730;BME280;17476;48.458;7.928;2023-05-12T04:19:01;99629.78;;;14.15;92.46
30730;BME280;17476;48.458;7.928;2023-05-12T04:21:27;99634.25;;;14.21;92.00
30730;BME280;17476;48.458;7.928;2023-05-12T04:23:53;99629.19;;;14.20;90.42
30730;BME280;17476;48.458;7.928;2023-05-12T04:26:19;99635.44;;;14.12;92.70
30730;BME280;17476;48.458;7.928;2023-05-12T04:28:45;99633.00;;;14.11;92.61
30730;BME280;17476;48.458;7.928;2023-05-12T04:31:12;99636.25;;;14.13;92.86
30730;BME280;17476;48.458;7.928;2023-05-12T04:33:38;99640.28;;;14.15;92.08
30730;BME280;17476;48.458;7.928;2023-05-12T04:36:04;99638.66;;;14.14;92.73
30730;BME280;17476;48.458;7.928;2023-05-12T04:38:30;99634.06;;;14.16;91.94
30730;BME280;17476;48.458;7.928;2023-05-12T04:40:59;99633.25;;;14.16;92.85
30730;BME280;17476;48.458;7.928;2023-05-12T04:43:26;99632.63;;;14.20;92.68
30730;BME280;17476;48.458;7.928;2023-05-12T04:45:52;99638.09;;;14.19;92.10
30730;BME280;17476;48.458;7.928;2023-05-12T04:48:20;99635.88;;;14.16;93.04
30730;BME280;17476;48.458;7.928;2023-05-12T04:50:47;99638.31;;;14.17;92.90
30730;BME280;17476;48.458;7.928;2023-05-12T04:53:16;99636.88;;;14.21;91.98
30730;BME280;17476;48.458;7.928;2023-05-12T04:55:42;99642.38;;;14.27;91.35
30730;BME280;17476;48.458;7.928;2023-05-12T04:58:11;99640.16;;;14.24;91.95
30730;BME280;17476;48.458;7.928;2023-05-12T05:00:40;99652.91;;;14.27;92.32
30730;BME280;17476;48.458;7.928;2023-05-12T05:03:06;99651.53;;;14.31;92.37
30730;BME280;17476;48.458;7.928;2023-05-12T05:05:32;99646.91;;;14.39;90.99
30730;BME280;17476;48.458;7.928;2023-05-12T05:07:57;99657.00;;;14.36;91.16
30730;BME280;17476;48.458;7.928;2023-05-12T05:10:23;99662.69;;;14.39;90.73
30730;BME280;17476;48.458;7.928;2023-05-12T05:12:49;99661.47;;;14.42;91.33
30730;BME280;17476;48.458;7.928;2023-05-12T05:15:15;99659.09;;;14.47;90.79
30730;BME280;17476;48.458;7.928;2023-05-12T05:17:41;99667.19;;;14.45;91.64
30730;BME280;17476;48.458;7.928;2023-05-12T05:20:14;99666.81;;;14.48;91.59
30730;BME280;17476;48.458;7.928;2023-05-12T05:22:40;99670.66;;;14.46;92.12
30730;BME280;17476;48.458;7.928;2023-05-12T05:25:06;99666.44;;;14.52;91.60
30730;BME280;17476;48.458;7.928;2023-05-12T05:27:32;99671.69;;;14.52;91.70
30730;BME280;17476;48.458;7.928;2023-05-12T05:29:58;99672.50;;;14.52;92.06
30730;BME280;17476;48.458;7.928;2023-05-12T05:32:24;99678.78;;;14.51;91.83
30730;BME280;17476;48.458;7.928;2023-05-12T05:34:50;99675.75;;;14.54;92.02
30730;BME280;17476;48.458;7.928;2023-05-12T05:37:17;99672.09;;;14.55;91.42
30730;BME280;17476;48.458;7.928;2023-05-12T05:39:43;99678.38;;;14.54;91.32
30730;BME280;17476;48.458;7.928;2023-05-12T05:42:09;99673.72;;;14.56;91.04
30730;BME280;17476;48.458;7.928;2023-05-12T05:44:35;99674.56;;;14.57;91.63
30730;BME280;17476;48.458;7.928;2023-05-12T05:47:01;99677.22;;;14.63;90.58
30730;BME280;17476;48.458;7.928;2023-05-12T05:49:27;99670.72;;;14.59;92.07
30730;BME280;17476;48.458;7.928;2023-05-12T05:51:53;99674.75;;;14.62;91.77
30730;BME280;17476;48.458;7.928;2023-05-12T05:54:19;99675.75;;;14.61;92.22
30730;BME280;17476;48.458;7.928;2023-05-12T05:56:47;99672.13;;;14.62;91.76
30730;BME280;17476;48.458;7.928;2023-05-12T05:59:13;99673.56;;;14.64;92.18
30730;BME280;17476;48.458;7.928;2023-05-12T06:01:39;99671.94;;;14.63;91.31
30730;BME280;17476;48.458;7.928;2023-05-12T06:04:05;99675.19;;;14.65;91.37
30730;BME280;17476;48.458;7.928;2023-05-12T06:06:30;99678.44;;;14.67;91.91
30730;BME280;17476;48.458;7.928;2023-05-12T06:08:57;99681.88;;;14.68;91.45
30730;BME280;17476;48.458;7.928;2023-05-12T06:11:23;99675.41;;;14.70;90.91
30730;BME280;17476;48.458;7.928;2023-05-12T06:13:49;99678.22;;;14.69;90.92
30730;BME280;17476;48.458;7.928;2023-05-12T06:16:14;99684.91;;;14.65;92.25
30730;BME280;17476;48.458;7.928;2023-05-12T06:18:40;99678.84;;;14.64;91.88
30730;BME280;17476;48.458;7.928;2023-05-12T06:21:06;99685.13;;;14.70;90.86
30730;BME280;17476;48.458;7.928;2023-05-12T06:23:32;99685.97;;;14.77;89.35
30730;BME280;17476;48.458;7.928;2023-05-12T06:25:58;99690.00;;;14.73;90.51
30730;BME280;17476;48.458;7.928;2023-05-12T06:28:24;99690.81;;;14.73;90.91
30730;BME280;17476;48.458;7.928;2023-05-12T06:30:50;99689.19;;;14.72;90.80
30730;BME280;17476;48.458;7.928;2023-05-12T06:33:16;99695.06;;;14.74;90.63
30730;BME280;17476;48.458;7.928;2023-05-12T06:35:41;99698.28;;;14.77;91.47
30730;BME280;17476;48.458;7.928;2023-05-12T06:38:07;99696.91;;;14.81;91.35
30730;BME280;17476;48.458;7.928;2023-05-12T06:40:33;99692.47;;;14.88;90.73
30730;BME280;17476;48.458;7.928;2023-05-12T06:43:02;99694.94;;;14.96;90.54
30730;BME280;17476;48.458;7.928;2023-05-12T06:45:27;99691.28;;;14.97;90.73
30730;BME280;17476;48.458;7.928;2023-05-12T06:47:53;99698.38;;;15.03;90.71
30730;BME280;17476;48.458;7.928;2023-05-12T06:50:19;99695.19;;;15.14;89.65
30730;BME280;17476;48.458;7.928;2023-05-12T06:52:45;99694.41;;;15.20;87.78
30730;BME280;17476;48.458;7.928;2023-05-12T06:55:11;99699.88;;;15.19;87.76
30730;BME280;17476;48.458;7.928;2023-05-12T06:57:37;99698.44;;;15.16;88.75
30730;BME280;17476;48.458;7.928;2023-05-12T07:00:03;99705.75;;;15.21;88.70
30730;BME280;17476;48.458;7.928;2023-05-12T07:02:29;99695.00;;;15.22;87.92
30730;BME280;17476;48.458;7.928;2023-05-12T07:04:55;99701.72;;;15.25;87.88
30730;BME280;17476;48.458;7.928;2023-05-12T07:07:21;99706.56;;;15.28;88.18
30730;BME280;17476;48.458;7.928;2023-05-12T07:09:47;99704.53;;;15.30;88.52
30730;BME280;17476;48.458;7.928;2023-05-12T07:12:13;99700.91;;;15.31;88.51
30730;BME280;17476;48.458;7.928;2023-05-12T07:14:39;99704.53;;;15.30;89.19
30730;BME280;17476;48.458;7.928;2023-05-12T07:17:05;99710.84;;;15.36;88.37
30730;BME280;17476;48.458;7.928;2023-05-12T07:19:31;99703.75;;;15.43;88.29
30730;BME280;17476;48.458;7.928;2023-05-12T07:21:57;99701.53;;;15.46;87.91
30730;BME280;17476;48.458;7.928;2023-05-12T07:24:23;99698.09;;;15.52;87.16
30730;BME280;17476;48.458;7.928;2023-05-12T07:26:49;99708.44;;;15.61;85.82
30730;BME280;17476;48.458;7.928;2023-05-12T07:29:15;99705.63;;;15.62;86.17
30730;BME280;17476;48.458;7.928;2023-05-12T07:31:42;99704.81;;;15.68;85.04
30730;BME280;17476;48.458;7.928;2023-05-12T07:34:07;99700.16;;;15.70;86.19
30730;BME280;17476;48.458;7.928;2023-05-12T07:36:33;99697.13;;;15.80;86.07
30730;BME280;17476;48.458;7.928;2023-05-12T07:38:59;99705.63;;;15.89;85.56
30730;BME280;17476;48.458;7.928;2023-05-12T07:41:25;99699.13;;;15.98;83.80
30730;BME280;17476;48.458;7.928;2023-05-12T07:43:51;99703.19;;;16.00;84.50
30730;BME280;17476;48.458;7.928;2023-05-12T07:46:16;99699.75;;;16.00;84.78
30730;BME280;17476;48.458;7.928;2023-05-12T07:48:42;99709.88;;;16.03;85.13
30730;BME280;17476;48.458;7.928;2023-05-12T07:51:08;99701.75;;;16.04;84.78
30730;BME280;17476;48.458;7.928;2023-05-12T07:53:34;99705.03;;;16.00;85.07
30730;BME280;17476;48.458;7.928;2023-05-12T07:56:00;99703.59;;;15.97;85.37
30730;BME280;17476;48.458;7.928;2023-05-12T07:58:26;99705.03;;;16.00;84.87
30730;BME280;17476;48.458;7.928;2023-05-12T08:00:52;99698.72;;;16.01;84.51
30730;BME280;17476;48.458;7.928;2023-05-12T08:03:19;99701.59;;;15.99;84.58
30730;BME280;17476;48.458;7.928;2023-05-12T08:05:45;99706.88;;;15.93;85.36
30730;BME280;17476;48.458;7.928;2023-05-12T08:08:10;99703.59;;;15.97;85.13
30730;BME280;17476;48.458;7.928;2023-05-12T08:10:42;99705.22;;;15.98;85.63
30730;BME280;17476;48.458;7.928;2023-05-12T08:13:08;99707.03;;;16.04;84.99
30730;BME280;17476;48.458;7.928;2023-05-12T08:15:34;99704.81;;;16.01;85.25
30730;BME280;17476;48.458;7.928;2023-05-12T08:18:00;99704.41;;;16.04;85.07
30730;BME280;17476;48.458;7.928;2023-05-12T08:20:25;99707.44;;;16.08;84.77
30730;BME280;17476;48.458;7.928;2023-05-12T08:22:51;99707.22;;;16.16;84.96
30730;BME280;17476;48.458;7.928;2023-05-12T08:25:17;99714.31;;;16.22;85.60
30730;BME280;17476;48.458;7.928;2023-05-12T08:27:43;99706.19;;;16.30;85.33
30730;BME280;17476;48.458;7.928;2023-05-12T08:30:10;99704.13;;;16.39;85.13
30730;BME280;17476;48.458;7.928;2023-05-12T08:32:36;99708.56;;;16.52;84.99
30730;BME280;17476;48.458;7.928;2023-05-12T08:35:02;99706.72;;;16.59;84.88
30730;BME280;17476;48.458;7.928;2023-05-12T08:37:28;99713.63;;;16.67;84.86
30730;BME280;17476;48.458;7.928;2023-05-12T08:39:54;99711.16;;;16.65;85.43
30730;BME280;17476;48.458;7.928;2023-05-12T08:42:53;99708.50;;;16.78;84.95
30730;BME280;17476;48.458;7.928;2023-05-12T08:45:22;99709.47;;;16.90;85.22
30730;BME280;17476;48.458;7.928;2023-05-12T08:47:52;99711.88;;;16.99;85.33
30730;BME280;17476;48.458;7.928;2023-05-12T08:50:21;99715.03;;;17.21;84.72
30730;BME280;17476;48.458;7.928;2023-05-12T08:52:48;99714.72;;;17.35;85.00
30730;BME280;17476;48.458;7.928;2023-05-12T08:55:14;99716.03;;;17.51;82.59
30730;BME280;17476;48.458;7.928;2023-05-12T08:57:41;99713.09;;;17.66;81.52
30730;BME280;17476;48.458;7.928;2023-05-12T09:00:11;99711.41;;;17.78;82.29
30730;BME280;17476;48.458;7.928;2023-05-12T09:02:38;99717.97;;;17.94;81.89
30730;BME280;17476;48.458;7.928;2023-05-12T09:05:06;99712.13;;;18.10;78.42
30730;BME280;17476;48.458;7.928;2023-05-12T09:07:32;99706.78;;;18.17;79.18
30730;BME280;17476;48.458;7.928;2023-05-12T09:10:00;99710.69;;;18.33;79.41
30730;BME280;17476;48.458;7.928;2023-05-12T09:12:32;99708.72;;;18.46;79.91
30730;BME280;17476;48.458;7.928;2023-05-12T09:15:06;99707.28;;;18.62;78.07
30730;BME280;17476;48.458;7.928;2023-05-12T09:17:35;99706.44;;;18.68;78.35
30730;BME280;17476;48.458;7.928;2023-05-12T09:20:01;99699.84;;;18.77;78.10
30730;BME280;17476;48.458;7.928;2023-05-12T09:22:30;99704.28;;;18.95;76.86
30730;BME280;17476;48.458;7.928;2023-05-12T09:24:56;99709.06;;;19.05;77.52
30730;BME280;17476;48.458;7.928;2023-05-12T09:27:29;99710.63;;;19.24;75.08
30730;BME280;17476;48.458;7.928;2023-05-12T09:29:55;99706.22;;;19.18;75.95
30730;BME280;17476;48.458;7.928;2023-05-12T09:32:31;99712.00;;;19.27;76.87
30730;BME280;17476;48.458;7.928;2023-05-12T09:35:05;99708.00;;;19.36;75.44
30730;BME280;17476;48.458;7.928;2023-05-12T09:37:33;99708.13;;;19.41;75.81
30730;BME280;17476;48.458;7.928;2023-05-12T09:40:04;99700.66;;;19.50;75.64
30730;BME280;17476;48.458;7.928;2023-05-12T09:42:33;99708.03;;;19.48;75.43
30730;BME280;17476;48.458;7.928;2023-05-12T09:45:05;99705.69;;;19.70;75.38
30730;BME280;17476;48.458;7.928;2023-05-12T09:47:38;99704.31;;;19.90;72.20
30730;BME280;17476;48.458;7.928;2023-05-12T09:50:06;99699.38;;;20.06;71.64
30730;BME280;17476;48.458;7.928;2023-05-12T09:52:39;99694.75;;;20.13;72.11
30730;BME280;17476;48.458;7.928;2023-05-12T09:55:11;99700.72;;;20.32;72.62
30730;BME280;17476;48.458;7.928;2023-05-12T09:57:42;99702.13;;;20.46;69.01
30730;BME280;17476;48.458;7.928;2023-05-12T10:00:11;99704.63;;;20.64;69.26
30730;BME280;17476;48.458;7.928;2023-05-12T10:02:42;99709.41;;;20.91;69.56
30730;BME280;17476;48.458;7.928;2023-05-12T10:05:15;99707.53;;;21.20;69.42
30730;BME280;17476;48.458;7.928;2023-05-12T10:07:47;99700.84;;;21.46;66.96
30730;BME280;17476;48.458;7.928;2023-05-12T10:10:23;99694.25;;;21.82;67.50
30730;BME280;17476;48.458;7.928;2023-05-12T10:12:50;99696.09;;;22.15;66.82
30730;BME280;17476;48.458;7.928;2023-05-12T10:15:17;99689.19;;;22.36;62.66
30730;BME280;17476;48.458;7.928;2023-05-12T10:17:44;99693.88;;;22.51;60.80
30730;BME280;17476;48.458;7.928;2023-05-12T10:20:11;99687.56;;;22.57;58.94
30730;BME280;17476;48.458;7.928;2023-05-12T10:22:39;99689.25;;;22.63;59.46
30730;BME280;17476;48.458;7.928;2023-05-12T10:25:06;99682.88;;;22.69;56.83
30730;BME280;17476;48.458;7.928;2023-05-12T10:27:34;99686.13;;;22.93;64.10
30730;BME280;17476;48.458;7.928;2023-05-12T10:30:02;99677.47;;;23.08;60.50
30730;BME280;17476;48.458;7.928;2023-05-12T10:32:29;99676.78;;;23.50;62.39
30730;BME280;17476;48.458;7.928;2023-05-12T10:35:06;99680.13;;;23.99;62.98
30730;BME280;17476;48.458;7.928;2023-05-12T10:37:34;99680.47;;;24.18;57.22
30730;BME280;17476;48.458;7.928;2023-05-12T10:40:02;99675.41;;;24.21;56.91
30730;BME280;17476;48.458;7.928;2023-05-12T10:42:38;99671.28;;;24.41;56.92
30730;BME280;17476;48.458;7.928;2023-05-12T10:45:17;99665.84;;;24.31;55.84
30730;BME280;17476;48.458;7.928;2023-05-12T10:47:44;99667.97;;;24.29;56.89
30730;BME280;17476;48.458;7.928;2023-05-12T10:50:11;99659.13;;;24.23;55.47
30730;BME280;17476;48.458;7.928;2023-05-12T10:52:58;99666.19;;;24.39;57.67
30730;BME280;17476;48.458;7.928;2023-05-12T10:55:42;99656.84;;;24.52;56.69
30730;BME280;17476;48.458;7.928;2023-05-12T10:58:11;99658.41;;;24.38;56.32
30730;BME280;17476;48.458;7.928;2023-05-12T11:00:49;99656.81;;;24.37;53.88
30730;BME280;17476;48.458;7.928;2023-05-12T11:03:22;99659.16;;;24.28;53.42
30730;BME280;17476;48.458;7.928;2023-05-12T11:06:03;99663.25;;;24.41;56.75
30730;BME280;17476;48.458;7.928;2023-05-12T11:08:30;99662.03;;;24.16;51.23
30730;BME280;17476;48.458;7.928;2023-05-12T11:10:57;99662.81;;;24.12;54.30
30730;BME280;17476;48.458;7.928;2023-05-12T11:13:23;99661.53;;;24.19;55.10
30730;BME280;17476;48.458;7.928;2023-05-12T11:15:50;99659.13;;;24.23;53.56
30730;BME280;17476;48.458;7.928;2023-05-12T11:18:20;99668.22;;;24.22;50.53
30730;BME280;17476;48.458;7.928;2023-05-12T11:20:46;99664.09;;;24.04;50.60
30730;BME280;17476;48.458;7.928;2023-05-12T11:23:26;99665.16;;;24.03;53.49
30730;BME280;17476;48.458;7.928;2023-05-12T11:25:54;99660.97;;;24.17;55.45
30730;BME280;17476;48.458;7.928;2023-05-12T11:28:20;99658.88;;;24.30;54.03
30730;BME280;17476;48.458;7.928;2023-05-12T11:30:53;99656.19;;;24.19;50.23
30730;BME280;17476;48.458;7.928;2023-05-12T11:33:20;99661.25;;;24.21;54.47
30730;BME280;17476;48.458;7.928;2023-05-12T11:35:49;99658.63;;;24.26;55.26
30730;BME280;17476;48.458;7.928;2023-05-12T11:38:16;99669.00;;;24.22;54.09
30730;BME280;17476;48.458;7.928;2023-05-12T11:40:42;99660.09;;;24.02;52.19
30730;BME280;17476;48.458;7.928;2023-05-12T11:43:11;99665.47;;;24.07;53.73
30730;BME280;17476;48.458;7.928;2023-05-12T11:45:37;99667.91;;;24.13;52.59
30730;BME280;17476;48.458;7.928;2023-05-12T11:48:09;99663.63;;;24.17;51.98
30730;BME280;17476;48.458;7.928;2023-05-12T11:50:38;99666.81;;;24.09;53.51
30730;BME280;17476;48.458;7.928;2023-05-12T11:53:08;99666.53;;;24.11;53.00
30730;BME280;17476;48.458;7.928;2023-05-12T11:55:33;99669.16;;;24.01;53.93
30730;BME280;17476;48.458;7.928;2023-05-12T11:58:02;99672.41;;;24.08;54.60
30730;BME280;17476;48.458;7.928;2023-05-12T12:00:34;99671.66;;;24.17;53.41
30730;BME280;17476;48.458;7.928;2023-05-12T12:03:12;99666.06;;;24.24;52.64
30730;BME280;17476;48.458;7.928;2023-05-12T12:05:43;99668.78;;;24.29;49.83
30730;BME280;17476;48.458;7.928;2023-05-12T12:08:14;99666.47;;;24.48;50.61
30730;BME280;17476;48.458;7.928;2023-05-12T12:10:45;99656.38;;;24.60;49.51
30730;BME280;17476;48.458;7.928;2023-05-12T12:13:12;99660.59;;;24.46;50.51
30730;BME280;17476;48.458;7.928;2023-05-12T12:15:38;99659.50;;;24.42;50.83
30730;BME280;17476;48.458;7.928;2023-05-12T12:18:04;99651.41;;;24.32;52.21
30730;BME280;17476;48.458;7.928;2023-05-12T12:20:30;99660.03;;;24.44;52.11
30730;BME280;17476;48.458;7.928;2023-05-12T12:22:55;99659.31;;;24.64;52.84
30730;BME280;17476;48.458;7.928;2023-05-12T12:25:21;99659.94;;;24.96;51.86
30730;BME280;17476;48.458;7.928;2023-05-12T12:27:48;99669.09;;;25.16;49.70
30730;BME280;17476;48.458;7.928;2023-05-12T12:30:14;99670.44;;;25.28;49.23
30730;BME280;17476;48.458;7.928;2023-05-12T12:32:42;99660.53;;;25.29;48.78
30730;BME280;17476;48.458;7.928;2023-05-12T12:35:09;99658.91;;;25.64;48.49
30730;BME280;17476;48.458;7.928;2023-05-12T12:37:36;99655.16;;;25.85;47.71
30730;BME280;17476;48.458;7.928;2023-05-12T12:40:02;99661.84;;;25.98;48.31
30730;BME280;17476;48.458;7.928;2023-05-12T12:42:37;99666.91;;;25.99;47.65
30730;BME280;17476;48.458;7.928;2023-05-12T12:45:05;99665.63;;;25.76;47.25
30730;BME280;17476;48.458;7.928;2023-05-12T12:47:31;99672.88;;;25.61;47.91
30730;BME280;17476;48.458;7.928;2023-05-12T12:49:57;99681.41;;;25.57;48.27
30730;BME280;17476;48.458;7.928;2023-05-12T12:52:23;99676.59;;;25.44;48.36
30730;BME280;17476;48.458;7.928;2023-05-12T12:54:49;99674.72;;;25.14;47.57
30730;BME280;17476;48.458;7.928;2023-05-12T12:57:15;99676.00;;;25.01;48.54
30730;BME280;17476;48.458;7.928;2023-05-12T12:59:41;99682.09;;;24.82;47.97